createdAt,value
2018-05-18T00:00:47.565Z,9.60
2018-05-18T00:01:47.562Z,9.57
2018-05-18T00:02:47.555Z,9.64
2018-05-18T00:03:47.545Z,9.63
2018-05-18T00:04:47.543Z,9.68
2018-05-18T00:05:47.536Z,9.73
2018-05-18T00:06:47.536Z,9.68
2018-05-18T00:07:47.523Z,9.73
2018-05-18T00:08:47.520Z,9.58
2018-05-18T00:09:47.509Z,9.58
2018-05-18T00:10:47.501Z,9.53
2018-05-18T00:11:47.498Z,9.45
2018-05-18T00:12:47.501Z,9.38
2018-05-18T00:13:47.483Z,9.39
2018-05-18T00:14:47.481Z,9.45
2018-05-18T00:15:47.471Z,9.48
2018-05-18T00:16:47.464Z,9.45
2018-05-18T00:17:47.460Z,9.52
2018-05-18T00:18:47.454Z,9.43
2018-05-18T00:19:47.444Z,9.39
2018-05-18T00:20:47.440Z,9.38
2018-05-18T00:21:47.445Z,9.35
2018-05-18T00:22:47.438Z,9.35
2018-05-18T00:23:47.419Z,9.35
2018-05-18T00:24:47.414Z,9.39
2018-05-18T00:25:47.403Z,9.34
2018-05-18T00:26:47.403Z,9.34
2018-05-18T00:27:47.405Z,9.40
2018-05-18T00:28:47.383Z,9.38
2018-05-18T00:29:47.376Z,9.35
2018-05-18T00:30:47.374Z,9.38
2018-05-18T00:31:47.365Z,9.39
2018-05-18T00:32:47.357Z,9.38
2018-05-18T00:33:47.362Z,9.25
2018-05-18T00:34:47.344Z,9.25
2018-05-18T00:35:47.335Z,9.25
2018-05-18T00:36:47.326Z,9.25
2018-05-18T00:37:47.322Z,9.28
2018-05-18T00:38:47.314Z,9.23
2018-05-18T00:39:47.312Z,9.31
2018-05-18T00:40:47.302Z,9.38
2018-05-18T00:41:47.332Z,9.48
2018-05-18T00:42:47.288Z,9.58
2018-05-18T00:43:47.283Z,9.50
2018-05-18T00:44:47.279Z,9.49
2018-05-18T00:45:47.273Z,9.56
2018-05-18T00:46:47.254Z,9.38
2018-05-18T00:47:47.253Z,9.49
2018-05-18T00:48:47.252Z,9.43
2018-05-18T00:49:47.244Z,9.39
2018-05-18T00:50:47.237Z,9.35
2018-05-18T00:51:47.223Z,9.39
2018-05-18T00:52:47.221Z,9.40
2018-05-18T00:53:47.223Z,9.48
2018-05-18T00:54:47.207Z,9.61
2018-05-18T00:55:47.201Z,9.60
2018-05-18T00:56:47.192Z,9.57
2018-05-18T00:57:47.218Z,9.64
2018-05-18T00:58:47.180Z,9.70
2018-05-18T00:59:47.171Z,9.75
2018-05-18T01:00:47.215Z,9.71
2018-05-18T01:01:47.220Z,9.68
2018-05-18T01:02:47.154Z,9.76
2018-05-18T01:03:47.142Z,9.70
2018-05-18T01:04:47.138Z,9.67
2018-05-18T01:05:47.131Z,9.66
2018-05-18T01:06:47.120Z,9.57
2018-05-18T01:07:47.121Z,9.58
2018-05-18T01:08:47.112Z,9.57
2018-05-18T01:09:47.118Z,9.60
2018-05-18T01:10:47.100Z,9.60
2018-05-18T01:11:47.092Z,9.61
2018-05-18T01:12:47.082Z,9.53
2018-05-18T01:13:47.078Z,9.56
2018-05-18T01:14:47.106Z,9.60
2018-05-18T01:15:47.084Z,9.48
2018-05-18T01:16:47.113Z,9.50
2018-05-18T01:17:47.122Z,9.49
2018-05-18T01:18:47.046Z,9.50
2018-05-18T01:19:47.037Z,9.43
2018-05-18T01:20:47.026Z,9.48
2018-05-18T01:21:47.024Z,9.49
2018-05-18T01:22:47.022Z,9.45
2018-05-18T01:23:47.011Z,9.58
2018-05-18T01:24:47.008Z,9.58
2018-05-18T01:25:47.007Z,9.58
2018-05-18T01:26:46.991Z,9.58
2018-05-18T01:27:47.020Z,9.56
2018-05-18T01:28:46.977Z,9.56
2018-05-18T01:29:46.986Z,9.60
2018-05-18T02:03:43.917Z,9.57
2018-05-18T02:04:43.899Z,9.57
2018-05-18T02:06:36.904Z,9.46
2018-05-18T02:07:36.871Z,9.35
2018-05-18T02:09:29.787Z,9.43
2018-05-18T02:10:29.765Z,9.30
2018-05-18T02:12:22.800Z,9.24
2018-05-18T02:13:22.772Z,9.20
2018-05-18T02:15:15.701Z,9.02
2018-05-18T02:16:15.669Z,8.99
2018-05-18T02:17:15.657Z,8.84
2018-05-18T02:18:15.648Z,8.91
2018-05-18T02:19:15.645Z,8.94
2018-05-18T02:20:15.639Z,9.12
2018-05-18T02:21:15.629Z,9.06
2018-05-18T02:22:15.636Z,9.21
2018-05-18T02:23:15.608Z,9.20
2018-05-18T02:24:15.605Z,9.16
2018-05-18T02:25:15.593Z,9.09
2018-05-18T02:26:15.585Z,9.09
2018-05-18T02:27:15.577Z,8.97
2018-05-18T02:28:15.573Z,9.02
2018-05-18T02:29:15.565Z,8.97
2018-05-18T02:30:15.564Z,8.96
2018-05-18T02:31:15.554Z,8.97
2018-05-18T02:32:15.549Z,8.91
2018-05-18T02:33:15.541Z,8.78
2018-05-18T02:34:15.532Z,8.93
2018-05-18T02:35:15.521Z,8.91
2018-05-18T02:36:15.515Z,8.83
2018-05-18T02:37:15.509Z,8.90
2018-05-18T02:38:15.502Z,8.90
2018-05-18T02:39:15.495Z,8.94
2018-05-18T02:40:15.490Z,8.99
2018-05-18T02:41:15.483Z,8.96
2018-05-18T02:42:15.479Z,9.02
2018-05-18T02:43:15.470Z,8.99
2018-05-18T02:44:15.463Z,8.94
2018-05-18T02:45:15.453Z,8.90
2018-05-18T02:46:15.448Z,8.99
2018-05-18T02:47:15.439Z,8.96
2018-05-18T02:48:15.441Z,8.88
2018-05-18T02:49:15.500Z,8.84
2018-05-18T02:50:15.420Z,8.86
2018-05-18T02:51:15.414Z,8.91
2018-05-18T02:52:15.413Z,8.90
2018-05-18T02:53:15.403Z,8.83
2018-05-18T02:54:15.393Z,8.84
2018-05-18T02:55:15.383Z,8.96
2018-05-18T02:56:15.377Z,8.84
2018-05-18T02:57:15.372Z,8.96
2018-05-18T02:58:15.362Z,8.81
2018-05-18T02:59:15.442Z,8.90
2018-05-18T03:00:15.355Z,8.87
2018-05-18T03:01:15.346Z,8.96
2018-05-18T03:02:15.334Z,8.94
2018-05-18T03:03:15.332Z,8.94
2018-05-18T03:04:15.324Z,9.02
2018-05-18T03:05:15.314Z,9.06
2018-05-18T03:06:15.305Z,9.04
2018-05-18T03:07:15.482Z,9.01
2018-05-18T03:08:15.299Z,8.96
2018-05-18T03:09:15.293Z,8.90
2018-05-18T03:10:15.276Z,9.04
2018-05-18T03:11:15.277Z,9.10
2018-05-18T03:12:15.274Z,9.10
2018-05-18T03:13:15.262Z,9.13
2018-05-18T03:14:15.261Z,9.13
2018-05-18T03:15:15.249Z,9.20
2018-05-18T03:16:15.237Z,9.12
2018-05-18T03:17:15.231Z,9.16
2018-05-18T03:18:15.230Z,9.13
2018-05-18T03:19:15.217Z,9.18
2018-05-18T03:20:15.221Z,9.20
2018-05-18T03:21:15.200Z,9.15
2018-05-18T03:22:15.213Z,9.15
2018-05-18T03:23:15.190Z,9.12
2018-05-18T03:24:15.182Z,9.20
2018-05-18T03:25:15.189Z,9.18
2018-05-18T03:26:15.184Z,9.10
2018-05-18T03:27:15.165Z,9.23
2018-05-18T03:28:15.161Z,9.23
2018-05-18T03:29:15.156Z,9.24
2018-05-18T03:30:15.166Z,9.13
2018-05-18T03:31:15.135Z,9.12
2018-05-18T03:32:15.133Z,9.23
2018-05-18T03:33:15.124Z,9.16
2018-05-18T03:34:15.118Z,9.20
2018-05-18T03:35:15.108Z,9.20
2018-05-18T03:36:15.103Z,9.24
2018-05-18T03:37:15.099Z,9.25
2018-05-18T03:38:15.092Z,9.25
2018-05-18T03:39:15.083Z,9.24
2018-05-18T03:40:15.068Z,9.16
2018-05-18T03:41:15.080Z,9.16
2018-05-18T03:42:15.062Z,9.15
2018-05-18T03:43:15.061Z,9.13
2018-05-18T03:44:15.068Z,9.18
2018-05-18T03:45:15.044Z,9.20
2018-05-18T03:46:15.033Z,9.20
2018-05-18T03:47:15.027Z,9.28
2018-05-18T03:48:15.044Z,9.24
2018-05-18T03:49:15.013Z,9.30
2018-05-18T03:50:15.007Z,9.39
2018-05-18T03:51:14.997Z,9.38
2018-05-18T03:52:14.992Z,9.35
2018-05-18T03:53:14.987Z,9.46
2018-05-18T03:54:14.978Z,9.43
2018-05-18T03:55:14.972Z,9.49
2018-05-18T03:56:14.963Z,9.42
2018-05-18T03:57:14.956Z,9.52
2018-05-18T03:58:14.951Z,9.49
2018-05-18T03:59:14.943Z,9.38
2018-05-18T04:00:15.027Z,9.40
2018-05-18T04:01:14.930Z,9.39
2018-05-18T04:02:14.921Z,9.34
2018-05-18T04:03:14.904Z,9.34
2018-05-18T04:04:15.770Z,9.34
2018-05-18T04:05:15.061Z,9.34
2018-05-18T04:06:15.065Z,9.31
2018-05-18T04:07:14.933Z,9.28
2018-05-18T04:08:14.935Z,9.27
2018-05-18T04:09:14.890Z,9.31
2018-05-18T04:10:14.943Z,9.42
2018-05-18T04:11:14.900Z,9.34
2018-05-18T04:12:14.916Z,9.40
2018-05-18T04:13:14.923Z,9.38
2018-05-18T04:14:14.926Z,9.42
2018-05-18T04:15:14.919Z,9.40
2018-05-18T04:16:14.846Z,9.43
2018-05-18T04:17:14.846Z,9.35
2018-05-18T04:18:14.935Z,9.42
2018-05-18T04:19:14.852Z,9.46
2018-05-18T04:20:14.852Z,9.48
2018-05-18T04:21:14.869Z,9.45
2018-05-18T04:22:14.813Z,9.57
2018-05-18T04:23:14.819Z,9.60
2018-05-18T04:24:14.800Z,9.53
2018-05-18T04:25:14.790Z,9.67
2018-05-18T04:26:14.801Z,9.60
2018-05-18T04:27:14.798Z,9.60
2018-05-18T04:28:14.805Z,9.70
2018-05-18T04:29:14.808Z,9.71
2018-05-18T04:30:14.951Z,9.75
2018-05-18T04:31:14.792Z,9.76
2018-05-18T04:32:14.745Z,9.82
2018-05-18T04:33:14.735Z,9.76
2018-05-18T04:34:14.751Z,9.79
2018-05-18T04:35:14.750Z,9.82
2018-05-18T04:36:14.768Z,9.91
2018-05-18T04:37:14.713Z,9.99
2018-05-18T04:38:14.714Z,10.01
2018-05-18T04:39:14.721Z,10.14
2018-05-18T04:40:14.698Z,10.22
2018-05-18T04:41:14.699Z,10.26
2018-05-18T04:42:14.703Z,10.24
2018-05-18T04:43:14.770Z,10.42
2018-05-18T04:44:14.721Z,10.51
2018-05-18T04:45:14.651Z,10.59
2018-05-18T04:46:14.699Z,10.55
2018-05-18T04:47:14.640Z,10.58
2018-05-18T04:48:14.641Z,10.65
2018-05-18T04:49:14.639Z,10.56
2018-05-18T04:50:14.627Z,10.60
2018-05-18T04:51:14.634Z,10.68
2018-05-18T04:52:14.614Z,10.73
2018-05-18T04:53:14.610Z,10.78
2018-05-18T04:54:14.607Z,10.83
2018-05-18T04:55:14.599Z,10.88
2018-05-18T04:56:14.632Z,10.99
2018-05-18T04:57:14.601Z,11.10
2018-05-18T04:58:14.585Z,11.17
2018-05-18T04:59:14.590Z,11.27
2018-05-18T05:00:14.592Z,11.29
2018-05-18T05:01:14.608Z,11.31
2018-05-18T05:02:14.560Z,11.44
2018-05-18T05:03:14.567Z,11.46
2018-05-18T05:04:14.555Z,11.53
2018-05-18T05:05:14.645Z,11.61
2018-05-18T05:06:14.580Z,11.64
2018-05-18T05:07:14.539Z,11.82
2018-05-18T05:08:14.539Z,11.90
2018-05-18T05:09:14.533Z,11.97
2018-05-18T05:10:14.527Z,12.12
2018-05-18T05:11:14.573Z,12.26
2018-05-18T05:12:14.520Z,12.38
2018-05-18T05:13:14.520Z,12.41
2018-05-18T05:14:14.511Z,12.46
2018-05-18T05:15:14.500Z,12.38
2018-05-18T05:16:14.505Z,12.41
2018-05-18T05:17:14.497Z,12.34
2018-05-18T05:18:14.545Z,12.37
2018-05-18T05:19:14.492Z,12.54
2018-05-18T05:20:14.487Z,12.56
2018-05-18T05:21:14.514Z,12.62
2018-05-18T05:22:14.487Z,12.79
2018-05-18T05:23:14.476Z,12.87
2018-05-18T05:24:14.473Z,12.70
2018-05-18T05:25:14.469Z,12.56
2018-05-18T05:26:14.483Z,12.63
2018-05-18T05:27:14.461Z,12.64
2018-05-18T05:28:14.455Z,12.57
2018-05-18T05:29:14.458Z,12.64
2018-05-18T05:30:14.451Z,12.77
2018-05-18T05:31:14.464Z,12.85
2018-05-18T05:32:14.448Z,12.88
2018-05-18T05:33:14.442Z,12.96
2018-05-18T05:34:14.466Z,12.74
2018-05-18T05:35:14.543Z,12.75
2018-05-18T05:36:14.472Z,12.59
2018-05-18T05:37:14.453Z,12.59
2018-05-18T05:38:14.470Z,12.60
2018-05-18T05:39:14.472Z,12.48
2018-05-18T05:40:14.458Z,12.56
2018-05-18T05:41:14.482Z,12.64
2018-05-18T05:42:14.493Z,12.75
2018-05-18T05:43:14.501Z,12.85
2018-05-18T05:44:14.508Z,12.87
2018-05-18T05:45:14.513Z,12.88
2018-05-18T05:46:14.525Z,12.87
2018-05-18T05:47:14.469Z,12.79
2018-05-18T05:48:14.423Z,12.97
2018-05-18T05:49:14.420Z,12.93
2018-05-18T05:50:14.469Z,12.97
2018-05-18T05:51:14.497Z,12.89
2018-05-18T05:52:14.445Z,12.93
2018-05-18T05:53:14.451Z,13.00
2018-05-18T05:54:14.406Z,13.15
2018-05-18T05:55:14.450Z,13.14
2018-05-18T05:56:14.455Z,13.06
2018-05-18T05:57:14.372Z,12.81
2018-05-18T05:58:14.371Z,12.82
2018-05-18T05:59:14.385Z,12.85
2018-05-18T06:00:14.395Z,12.82
2018-05-18T06:01:14.388Z,12.66
2018-05-18T06:02:14.379Z,12.64
2018-05-18T06:03:14.363Z,12.57
2018-05-18T06:04:14.342Z,12.52
2018-05-18T06:05:14.341Z,12.39
2018-05-18T06:06:14.332Z,12.41
2018-05-18T06:07:14.323Z,12.56
2018-05-18T06:08:14.327Z,12.57
2018-05-18T06:09:14.322Z,12.66
2018-05-18T06:10:14.318Z,12.51
2018-05-18T06:11:14.313Z,12.69
2018-05-18T06:12:14.336Z,12.69
2018-05-18T06:13:14.308Z,12.79
2018-05-18T06:14:14.326Z,12.74
2018-05-18T06:15:14.316Z,12.81
2018-05-18T06:16:14.319Z,12.79
2018-05-18T06:17:14.304Z,12.75
2018-05-18T06:18:14.302Z,12.69
2018-05-18T06:19:14.282Z,12.69
2018-05-18T06:20:14.281Z,12.74
2018-05-18T06:21:14.275Z,12.62
2018-05-18T06:22:14.274Z,12.52
2018-05-18T06:23:14.268Z,12.49
2018-05-18T06:24:14.266Z,12.64
2018-05-18T06:25:14.263Z,12.56
2018-05-18T06:26:14.256Z,12.42
2018-05-18T06:27:14.251Z,12.41
2018-05-18T06:28:14.260Z,12.30
2018-05-18T06:29:14.248Z,12.19
2018-05-18T06:30:14.245Z,12.04
2018-05-18T06:31:14.286Z,12.06
2018-05-18T06:32:14.300Z,12.09
2018-05-18T06:33:14.230Z,12.08
2018-05-18T06:34:14.229Z,12.04
2018-05-18T06:35:14.254Z,12.15
2018-05-18T06:36:14.218Z,12.21
2018-05-18T06:37:14.215Z,12.29
2018-05-18T06:38:14.209Z,12.21
2018-05-18T06:39:14.242Z,12.12
2018-05-18T06:40:14.235Z,12.16
2018-05-18T06:41:14.229Z,12.09
2018-05-18T06:42:14.195Z,12.08
2018-05-18T06:43:14.193Z,12.09
2018-05-18T06:44:14.184Z,12.11
2018-05-18T06:45:14.187Z,12.13
2018-05-18T06:46:14.173Z,12.13
2018-05-18T06:47:14.175Z,12.26
2018-05-18T06:48:14.167Z,12.15
2018-05-18T06:49:14.164Z,12.15
2018-05-18T06:50:14.168Z,12.23
2018-05-18T06:51:14.155Z,12.30
2018-05-18T06:52:14.148Z,12.23
2018-05-18T06:53:14.147Z,12.33
2018-05-18T06:54:14.147Z,12.33
2018-05-18T06:55:14.138Z,12.31
2018-05-18T06:56:14.131Z,12.29
2018-05-18T06:57:14.131Z,12.30
2018-05-18T06:58:14.126Z,12.29
2018-05-18T06:59:14.124Z,12.20
2018-05-18T07:00:14.119Z,12.21
2018-05-18T07:01:14.119Z,12.20
2018-05-18T07:02:14.119Z,12.21
2018-05-18T07:03:14.167Z,12.09
2018-05-18T07:04:14.103Z,12.12
2018-05-18T07:05:14.095Z,12.13
2018-05-18T07:06:14.174Z,12.16
2018-05-18T07:07:14.084Z,12.13
2018-05-18T07:08:14.081Z,12.24
2018-05-18T07:09:14.082Z,12.12
2018-05-18T07:10:14.075Z,12.29
2018-05-18T07:11:14.074Z,12.27
2018-05-18T07:12:14.065Z,12.34
2018-05-18T07:13:14.063Z,12.27
2018-05-18T07:14:14.059Z,12.39
2018-05-18T07:15:14.058Z,12.38
2018-05-18T07:16:14.053Z,12.41
2018-05-18T07:17:14.041Z,12.39
2018-05-18T07:18:14.048Z,12.31
2018-05-18T07:19:14.042Z,12.33
2018-05-18T07:20:14.038Z,12.41
2018-05-18T07:21:14.036Z,12.41
2018-05-18T07:22:14.033Z,12.42
2018-05-18T07:23:14.028Z,12.41
2018-05-18T07:24:14.026Z,12.56
2018-05-18T07:25:14.028Z,12.52
2018-05-18T07:26:14.015Z,12.62
2018-05-18T07:27:14.013Z,12.56
2018-05-18T07:28:14.007Z,12.60
2018-05-18T07:29:14.005Z,12.74
2018-05-18T07:30:14.006Z,12.81
2018-05-18T07:31:14.000Z,12.84
2018-05-18T07:32:13.991Z,12.92
2018-05-18T07:33:13.987Z,12.85
2018-05-18T07:34:13.984Z,12.92
2018-05-18T07:35:13.981Z,12.92
2018-05-18T07:36:14.055Z,12.95
2018-05-18T07:37:13.977Z,13.02
2018-05-18T07:38:13.971Z,13.11
2018-05-18T07:39:13.965Z,13.11
2018-05-18T07:40:13.965Z,13.30
2018-05-18T07:41:13.959Z,13.27
2018-05-18T07:42:13.956Z,13.33
2018-05-18T07:43:13.951Z,13.24
2018-05-18T07:44:13.950Z,13.46
2018-05-18T07:45:13.945Z,13.63
2018-05-18T07:46:13.943Z,13.52
2018-05-18T07:47:13.941Z,13.49
2018-05-18T07:48:13.955Z,13.29
2018-05-18T07:49:13.934Z,13.44
2018-05-18T07:50:14.061Z,13.59
2018-05-18T07:51:13.925Z,13.88
2018-05-18T07:52:13.926Z,13.95
2018-05-18T07:53:13.920Z,14.02
2018-05-18T07:54:13.917Z,13.99
2018-05-18T07:55:13.921Z,14.14
2018-05-18T07:56:13.912Z,14.04
2018-05-18T07:57:13.908Z,14.17
2018-05-18T07:58:13.908Z,14.20
2018-05-18T07:59:13.903Z,14.01
2018-05-18T08:00:13.907Z,13.99
2018-05-18T08:01:13.900Z,14.06
2018-05-18T08:02:13.897Z,14.34
2018-05-18T08:03:13.896Z,14.60
2018-05-18T08:04:13.974Z,14.61
2018-05-18T08:05:13.937Z,14.75
2018-05-18T08:06:13.902Z,14.80
2018-05-18T08:07:13.884Z,14.67
2018-05-18T08:08:13.884Z,14.81
2018-05-18T08:09:13.923Z,14.75
2018-05-18T08:10:13.907Z,14.91
2018-05-18T08:11:13.896Z,14.87
2018-05-18T08:12:13.909Z,14.93
2018-05-18T08:13:13.921Z,14.74
2018-05-18T08:14:13.901Z,14.68
2018-05-18T08:15:13.885Z,14.78
2018-05-18T08:16:13.891Z,14.65
2018-05-18T08:17:13.900Z,14.68
2018-05-18T08:18:13.879Z,14.72
2018-05-18T08:19:13.888Z,14.80
2018-05-18T08:20:13.903Z,14.90
2018-05-18T08:21:13.878Z,14.93
2018-05-18T08:22:13.880Z,14.94
2018-05-18T08:23:13.888Z,14.91
2018-05-18T08:24:13.896Z,14.90
2018-05-18T08:25:13.905Z,15.08
2018-05-18T08:26:13.861Z,15.06
2018-05-18T08:27:13.864Z,15.12
2018-05-18T08:28:13.854Z,15.12
2018-05-18T08:29:13.854Z,15.17
2018-05-18T08:30:13.856Z,15.12
2018-05-18T08:31:13.850Z,14.93
2018-05-18T08:32:13.851Z,15.13
2018-05-18T08:33:13.847Z,15.30
2018-05-18T08:34:13.857Z,15.15
2018-05-18T08:35:13.849Z,15.43
2018-05-18T08:36:13.854Z,15.78
2018-05-18T08:37:13.855Z,15.92
2018-05-18T08:38:13.848Z,15.85
2018-05-18T08:39:13.907Z,15.99
2018-05-18T08:40:13.847Z,15.86
2018-05-18T08:41:13.849Z,15.93
2018-05-18T08:42:13.851Z,15.86
2018-05-18T08:43:13.855Z,15.92
2018-05-18T08:44:13.850Z,16.22
2018-05-18T08:45:13.847Z,16.45
2018-05-18T08:46:13.845Z,16.49
2018-05-18T08:47:13.850Z,16.71
2018-05-18T08:48:13.851Z,16.67
2018-05-18T08:49:13.852Z,16.52
2018-05-18T08:50:13.846Z,16.88
2018-05-18T08:51:13.850Z,17.14
2018-05-18T08:52:13.850Z,17.88
2018-05-18T08:53:13.853Z,18.65
2018-05-18T08:54:13.855Z,19.20
2018-05-18T08:55:13.848Z,19.36
2018-05-18T08:56:13.860Z,19.48
2018-05-18T08:57:13.867Z,20.33
2018-05-18T08:58:13.867Z,21.27
2018-05-18T08:59:13.879Z,20.09
2018-05-18T09:00:13.884Z,19.90
2018-05-18T09:01:13.892Z,20.16
2018-05-18T09:02:13.904Z,21.29
2018-05-18T09:03:13.902Z,22.04
2018-05-18T09:04:13.913Z,23.12
2018-05-18T09:05:13.922Z,23.02
2018-05-18T09:06:13.931Z,24.47
2018-05-18T09:07:13.942Z,25.02
2018-05-18T09:08:13.949Z,25.87
2018-05-18T09:09:13.967Z,25.10
2018-05-18T09:10:13.981Z,25.31
2018-05-18T09:11:13.996Z,24.60
2018-05-18T09:12:14.004Z,24.26
2018-05-18T09:13:14.018Z,23.87
2018-05-18T09:14:14.084Z,24.12
2018-05-18T09:15:14.046Z,25.42
2018-05-18T09:16:14.061Z,26.31
2018-05-18T09:17:14.092Z,25.99
2018-05-18T09:18:14.090Z,26.79
2018-05-18T09:19:14.113Z,24.27
2018-05-18T09:20:14.127Z,24.79
2018-05-18T09:21:14.136Z,25.72
2018-05-18T09:22:14.150Z,25.74
2018-05-18T09:23:14.168Z,25.15
2018-05-18T09:24:14.180Z,23.90
2018-05-18T09:25:14.277Z,24.07
2018-05-18T09:26:14.213Z,23.22
2018-05-18T09:27:14.225Z,23.62
2018-05-18T09:28:14.246Z,24.08
2018-05-18T09:29:14.323Z,22.92
2018-05-18T09:30:14.318Z,23.09
2018-05-18T09:31:14.329Z,22.78
2018-05-18T09:32:14.337Z,23.23
2018-05-18T09:33:14.347Z,22.86
2018-05-18T09:34:14.356Z,21.39
2018-05-18T09:35:14.364Z,20.79
2018-05-18T09:36:14.365Z,21.05
2018-05-18T09:37:14.377Z,22.52
2018-05-18T09:38:14.380Z,23.04
2018-05-18T09:39:14.432Z,22.97
2018-05-18T09:40:14.435Z,22.86
2018-05-18T09:41:14.415Z,22.07
2018-05-18T09:42:14.447Z,20.28
2018-05-18T09:43:14.471Z,20.65
2018-05-18T09:44:14.469Z,21.24
2018-05-18T09:45:14.487Z,21.92
2018-05-18T09:46:14.477Z,22.86
2018-05-18T09:47:14.481Z,22.84
2018-05-18T09:48:14.484Z,22.96
2018-05-18T09:49:14.487Z,23.43
2018-05-18T09:50:14.492Z,23.68
2018-05-18T09:51:14.512Z,24.88
2018-05-18T09:52:14.526Z,25.02
2018-05-18T09:53:14.543Z,24.80
2018-05-18T09:54:14.568Z,25.84
2018-05-18T09:55:14.820Z,25.90
2018-05-18T09:56:14.598Z,24.88
2018-05-18T09:57:14.600Z,23.60
2018-05-18T09:58:14.599Z,22.12
2018-05-18T09:59:14.623Z,21.60
2018-05-18T10:00:14.614Z,20.91
2018-05-18T10:01:14.626Z,21.27
2018-05-18T10:02:14.635Z,21.36
2018-05-18T10:03:14.659Z,21.38
2018-05-18T10:04:14.637Z,21.27
2018-05-18T10:05:14.686Z,21.95
2018-05-18T10:06:14.715Z,22.77
2018-05-18T10:07:14.682Z,23.05
2018-05-18T10:08:14.677Z,23.11
2018-05-18T10:09:14.686Z,24.29
2018-05-18T10:10:14.696Z,24.77
2018-05-18T10:11:14.752Z,24.71
2018-05-18T10:12:14.725Z,24.50
2018-05-18T10:13:14.729Z,24.34
2018-05-18T10:14:14.742Z,23.20
2018-05-18T10:15:14.755Z,24.44
2018-05-18T10:16:14.816Z,24.53
2018-05-18T10:17:14.783Z,25.59
2018-05-18T10:18:14.801Z,25.97
2018-05-18T10:19:14.805Z,25.75
2018-05-18T10:20:14.823Z,23.92
2018-05-18T10:21:14.835Z,22.75
2018-05-18T10:22:14.851Z,23.17
2018-05-18T10:23:14.867Z,22.94
2018-05-18T10:24:14.886Z,22.67
2018-05-18T10:25:14.894Z,22.65
2018-05-18T10:26:14.930Z,23.05
2018-05-18T10:27:14.914Z,22.23
2018-05-18T10:28:14.922Z,22.04
2018-05-18T10:29:14.940Z,21.23
2018-05-18T10:30:14.950Z,21.99
2018-05-18T10:31:14.998Z,22.69
2018-05-18T10:32:14.963Z,22.72
2018-05-18T10:33:15.067Z,23.45
2018-05-18T10:34:14.990Z,24.14
2018-05-18T10:35:15.000Z,22.86
2018-05-18T10:36:15.054Z,21.95
2018-05-18T10:37:15.018Z,21.02
2018-05-18T10:38:15.030Z,20.49
2018-05-18T10:39:15.039Z,19.90
2018-05-18T10:40:15.054Z,20.90
2018-05-18T10:41:15.061Z,22.50
2018-05-18T10:42:15.067Z,23.39
2018-05-18T10:43:15.079Z,24.42
2018-05-18T10:44:15.089Z,25.46
2018-05-18T10:45:15.100Z,26.05
2018-05-18T10:46:15.109Z,25.89
2018-05-18T10:47:15.122Z,26.37
2018-05-18T10:48:15.129Z,26.21
2018-05-18T10:49:15.148Z,25.59
2018-05-18T10:50:15.166Z,25.44
2018-05-18T10:51:15.207Z,26.05
2018-05-18T10:52:15.228Z,25.91
2018-05-18T10:53:15.194Z,26.01
2018-05-18T10:54:15.206Z,25.86
2018-05-18T10:55:15.223Z,26.05
2018-05-18T10:56:15.269Z,25.05
2018-05-18T10:57:15.271Z,25.56
2018-05-18T10:58:15.304Z,24.57
2018-05-18T10:59:15.308Z,23.31
2018-05-18T11:00:15.314Z,22.57
2018-05-18T11:01:15.309Z,22.27
2018-05-18T11:02:15.319Z,22.57
2018-05-18T11:03:15.328Z,23.55
2018-05-18T11:04:15.345Z,23.68
2018-05-18T11:05:15.452Z,22.47
2018-05-18T11:06:15.406Z,22.78
2018-05-18T11:07:15.419Z,23.01
2018-05-18T11:08:15.430Z,23.61
2018-05-18T11:09:15.439Z,25.17
2018-05-18T11:10:15.447Z,25.93
2018-05-18T11:11:15.450Z,26.49
2018-05-18T11:12:15.467Z,26.11
2018-05-18T11:13:15.473Z,26.68
2018-05-18T11:14:15.575Z,27.43
2018-05-18T11:15:15.495Z,26.72
2018-05-18T11:16:15.504Z,26.69
2018-05-18T11:17:15.520Z,26.94
2018-05-18T11:18:15.530Z,27.35
2018-05-18T11:19:15.542Z,27.05
2018-05-18T11:20:15.564Z,26.64
2018-05-18T11:21:15.580Z,24.63
2018-05-18T11:22:15.590Z,23.68
2018-05-18T11:23:15.613Z,23.45
2018-05-18T11:24:15.616Z,22.84
2018-05-18T11:25:15.636Z,23.02
2018-05-18T11:26:15.743Z,22.77
2018-05-18T11:27:15.664Z,22.35
2018-05-18T11:28:15.677Z,22.14
2018-05-18T11:29:15.686Z,22.13
2018-05-18T11:30:15.695Z,21.72
2018-05-18T11:31:15.717Z,21.66
2018-05-18T11:32:15.712Z,21.02
2018-05-18T11:33:15.718Z,21.11
2018-05-18T11:34:15.734Z,21.81
2018-05-18T11:35:15.741Z,22.02
2018-05-18T11:36:15.766Z,22.49
2018-05-18T11:37:15.763Z,22.17
2018-05-18T11:38:15.769Z,21.56
2018-05-18T11:39:15.872Z,22.82
2018-05-18T11:40:15.798Z,23.79
2018-05-18T11:41:15.797Z,22.84
2018-05-18T11:42:15.887Z,22.64
2018-05-18T11:43:15.816Z,22.92
2018-05-18T11:44:15.825Z,23.34
2018-05-18T11:45:15.831Z,23.38
2018-05-18T11:46:15.848Z,23.55
2018-05-18T11:47:15.854Z,23.52
2018-05-18T11:48:15.901Z,23.50
2018-05-18T11:49:15.880Z,23.77
2018-05-18T11:50:15.889Z,22.97
2018-05-18T11:51:15.919Z,22.99
2018-05-18T11:52:15.911Z,23.55
2018-05-18T11:53:15.924Z,23.43
2018-05-18T11:54:15.940Z,22.59
2018-05-18T11:55:15.960Z,23.12
2018-05-18T11:56:15.964Z,23.19
2018-05-18T11:57:15.967Z,23.15
2018-05-18T11:58:16.014Z,23.29
2018-05-18T11:59:16.038Z,23.11
2018-05-18T12:00:16.031Z,23.31
2018-05-18T12:01:16.027Z,23.23
2018-05-18T12:02:16.091Z,23.60
2018-05-18T12:03:16.058Z,23.70
2018-05-18T12:04:16.065Z,24.27
2018-05-18T12:05:16.077Z,24.59
2018-05-18T12:06:16.131Z,24.20
2018-05-18T12:07:16.177Z,23.24
2018-05-18T12:08:16.133Z,23.94
2018-05-18T12:09:16.119Z,24.08
2018-05-18T12:10:16.158Z,23.20
2018-05-18T12:11:16.164Z,24.16
2018-05-18T12:12:16.171Z,23.19
2018-05-18T12:13:16.182Z,23.97
2018-05-18T12:14:16.221Z,23.40
2018-05-18T12:15:16.218Z,23.60
2018-05-18T12:16:16.219Z,22.72
2018-05-18T12:17:16.219Z,22.99
2018-05-18T12:18:16.244Z,22.89
2018-05-18T12:19:16.257Z,22.77
2018-05-18T12:20:16.267Z,23.52
2018-05-18T12:21:16.292Z,24.10
2018-05-18T12:22:16.294Z,24.56
2018-05-18T12:23:16.308Z,22.92
2018-05-18T12:24:16.324Z,22.38
2018-05-18T12:25:16.337Z,21.98
2018-05-18T12:26:16.401Z,21.60
2018-05-18T12:27:16.365Z,21.61
2018-05-18T12:28:16.374Z,21.64
2018-05-18T12:29:16.386Z,21.75
2018-05-18T12:30:16.396Z,21.78
2018-05-18T12:31:16.411Z,21.74
2018-05-18T12:32:16.422Z,22.12
2018-05-18T12:33:16.430Z,21.95
2018-05-18T12:34:16.441Z,21.34
2018-05-18T12:35:16.449Z,20.87
2018-05-18T12:36:16.457Z,20.64
2018-05-18T12:37:16.472Z,20.06
2018-05-18T12:38:16.499Z,19.76
2018-05-18T12:39:16.482Z,19.65
2018-05-18T12:40:16.493Z,19.70
2018-05-18T12:41:16.496Z,19.72
2018-05-18T12:42:16.520Z,19.72
2018-05-18T12:43:16.515Z,19.79
2018-05-18T12:44:16.519Z,19.78
2018-05-18T12:45:16.521Z,19.90
2018-05-18T12:46:16.520Z,19.87
2018-05-18T12:47:16.529Z,19.93
2018-05-18T12:48:16.538Z,20.21
2018-05-18T12:49:16.539Z,20.31
2018-05-18T12:50:16.539Z,20.18
2018-05-18T12:51:16.546Z,20.21
2018-05-18T12:52:16.545Z,20.16
2018-05-18T12:53:16.551Z,20.23
2018-05-18T12:54:16.553Z,20.02
2018-05-18T12:55:16.557Z,20.13
2018-05-18T12:56:16.556Z,20.16
2018-05-18T12:57:16.564Z,20.18
2018-05-18T12:58:16.562Z,19.95
2018-05-18T12:59:16.565Z,20.08
2018-05-18T13:00:16.561Z,20.24
2018-05-18T13:01:16.567Z,20.31
2018-05-18T13:02:16.566Z,20.50
2018-05-18T13:03:16.573Z,20.50
2018-05-18T13:04:16.566Z,20.27
2018-05-18T13:05:16.557Z,20.33
2018-05-18T13:06:16.599Z,20.30
2018-05-18T13:07:16.570Z,20.09
2018-05-18T13:08:16.601Z,20.18
2018-05-18T13:09:16.575Z,20.24
2018-05-18T13:10:16.574Z,20.09
2018-05-18T13:11:16.575Z,20.23
2018-05-18T13:12:16.571Z,20.34
2018-05-18T13:13:16.578Z,20.09
2018-05-18T13:14:17.290Z,20.13
2018-05-18T13:15:16.615Z,20.31
2018-05-18T13:16:16.583Z,20.31
2018-05-18T13:17:16.592Z,20.50
2018-05-18T13:18:16.585Z,20.25
2018-05-18T13:19:16.576Z,20.16
2018-05-18T13:20:16.603Z,20.18
2018-05-18T13:21:16.578Z,19.88
2018-05-18T13:22:16.573Z,19.94
2018-05-18T13:23:16.628Z,20.12
2018-05-18T13:24:16.585Z,20.15
2018-05-18T13:25:16.582Z,20.41
2018-05-18T13:26:16.574Z,20.51
2018-05-18T13:27:16.577Z,20.38
2018-05-18T13:28:16.579Z,20.18
2018-05-18T13:29:16.578Z,20.18
2018-05-18T13:30:16.590Z,20.34
2018-05-18T13:31:16.581Z,20.35
2018-05-18T13:32:16.570Z,20.31
2018-05-18T13:33:16.572Z,20.38
2018-05-18T13:34:16.573Z,20.46
2018-05-18T13:35:16.578Z,20.42
2018-05-18T13:36:16.567Z,20.21
2018-05-18T13:37:16.578Z,20.15